createdAt,value
2024-02-03T00:00:49.233Z,69.12
2024-02-03T00:03:51.745Z,68.70
2024-02-03T00:06:54.085Z,69.06
2024-02-03T00:09:56.356Z,68.61
2024-02-03T00:12:58.803Z,68.93
2024-02-03T00:16:03.787Z,68.96
2024-02-03T00:19:06.226Z,68.15
2024-02-03T00:22:08.596Z,68.69
2024-02-03T00:25:10.714Z,68.05
2024-02-03T00:28:12.951Z,69.27
2024-02-03T00:31:15.666Z,68.97
2024-02-03T00:34:18.059Z,69.72
2024-02-03T00:37:20.367Z,68.92
2024-02-03T00:40:22.535Z,69.05
2024-02-03T00:43:25.309Z,68.19
2024-02-03T00:46:27.462Z,69.66
2024-02-03T00:49:29.799Z,68.20
2024-02-03T00:52:32.105Z,69.81
2024-02-03T00:55:34.442Z,68.49
2024-02-03T00:58:36.812Z,70.02
2024-02-03T01:01:39.253Z,69.94
2024-02-03T01:04:43.635Z,69.65
2024-02-03T01:07:45.911Z,70.09
2024-02-03T01:10:48.315Z,70.28
2024-02-03T01:13:50.549Z,70.59
2024-02-03T01:16:52.889Z,69.28
2024-02-03T01:19:55.475Z,69.60
2024-02-03T01:22:57.744Z,70.45
2024-02-03T01:25:59.945Z,69.46
2024-02-03T01:29:02.204Z,69.92
2024-02-03T01:32:04.802Z,69.58
2024-02-03T01:35:07.427Z,68.94
2024-02-03T01:38:09.638Z,69.37
2024-02-03T01:41:11.830Z,69.02
2024-02-03T01:44:14.143Z,69.38
2024-02-03T01:47:17.341Z,69.30
2024-02-03T01:50:19.621Z,69.19
2024-02-03T01:53:22.431Z,69.26
2024-02-03T01:56:26.420Z,69.09
2024-02-03T01:59:30.932Z,69.44
2024-02-03T02:02:33.094Z,69.64
2024-02-03T02:05:35.332Z,68.97
2024-02-03T02:08:39.251Z,69.43
2024-02-03T02:11:41.694Z,69.41
2024-02-03T02:14:43.973Z,69.38
2024-02-03T02:17:46.261Z,68.70
2024-02-03T02:20:48.803Z,68.33
2024-02-03T02:23:51.141Z,68.55
2024-02-03T02:26:53.395Z,69.10
2024-02-03T02:29:55.701Z,68.59
2024-02-03T02:32:59.500Z,67.92
2024-02-03T02:36:01.844Z,68.48
2024-02-03T02:39:05.828Z,68.20
2024-02-03T02:42:08.239Z,68.79
2024-02-03T02:45:10.589Z,68.11
2024-02-03T02:48:12.929Z,68.09
2024-02-03T02:51:15.251Z,68.09
2024-02-03T02:54:17.487Z,68.59
2024-02-03T02:57:19.935Z,68.17
2024-02-03T03:00:22.276Z,68.64
2024-02-03T03:03:24.554Z,68.29
2024-02-03T03:06:26.791Z,68.55
2024-02-03T03:09:29.144Z,67.72
2024-02-03T03:12:31.548Z,67.86
2024-02-03T03:15:33.898Z,68.27
2024-02-03T03:18:38.784Z,67.34
2024-02-03T03:21:41.018Z,67.18
2024-02-03T03:24:43.629Z,67.12
2024-02-03T03:27:45.890Z,67.20
2024-02-03T03:30:48.229Z,67.81
2024-02-03T03:33:50.737Z,68.04
2024-02-03T03:36:53.200Z,67.03
2024-02-03T03:39:56.213Z,67.34
2024-02-03T03:42:58.484Z,67.49
2024-02-03T03:46:00.784Z,67.29
2024-02-03T03:49:06.327Z,67.77
2024-02-03T03:52:08.672Z,67.89
2024-02-03T03:55:10.877Z,67.25
2024-02-03T03:58:13.022Z,67.30
2024-02-03T04:01:15.374Z,67.31
2024-02-03T04:04:18.828Z,66.65
2024-02-03T04:07:20.971Z,66.95
2024-02-03T04:10:23.255Z,66.57
2024-02-03T04:13:25.340Z,67.19
2024-02-03T04:16:27.570Z,66.64
2024-02-03T04:19:29.959Z,67.16
2024-02-03T04:22:32.185Z,67.29
2024-02-03T04:25:34.350Z,67.36
2024-02-03T04:28:36.510Z,67.00
2024-02-03T04:31:44.154Z,66.74
2024-02-03T04:34:46.769Z,67.12
2024-02-03T04:37:49.109Z,66.99
2024-02-03T04:40:51.263Z,67.31
2024-02-03T04:43:53.649Z,67.11
2024-02-03T04:46:56.043Z,66.73
2024-02-03T04:49:58.540Z,66.42
2024-02-03T04:53:00.873Z,66.15
2024-02-03T04:56:02.968Z,65.96
2024-02-03T04:59:05.022Z,65.79
2024-02-03T05:02:07.291Z,65.80
2024-02-03T05:05:10.060Z,66.14
2024-02-03T05:08:12.133Z,68.56
2024-02-03T05:11:14.359Z,67.58
2024-02-03T05:14:16.481Z,67.28
2024-02-03T05:17:18.695Z,67.63
2024-02-03T05:20:20.919Z,67.45
2024-02-03T05:23:23.073Z,66.89
2024-02-03T05:26:25.230Z,67.22
2024-02-03T05:29:27.526Z,67.46
2024-02-03T05:32:31.096Z,66.74
2024-02-03T05:35:33.301Z,66.41
2024-02-03T05:38:35.543Z,65.82
2024-02-03T05:41:37.929Z,66.25
2024-02-03T05:44:40.111Z,66.44
2024-02-03T05:47:42.471Z,66.77
2024-02-03T05:50:44.585Z,71.53
2024-02-03T05:53:46.886Z,80.16
2024-02-03T05:56:49.128Z,92.93
2024-02-03T05:59:52.201Z,88.55
2024-02-03T06:02:57.605Z,89.95
2024-02-03T06:06:13.647Z,89.54
2024-02-03T06:09:24.359Z,90.62
2024-02-03T06:12:26.615Z,91.43
2024-02-03T06:15:28.821Z,93.72
2024-02-03T06:18:31.188Z,96.95
2024-02-03T06:21:33.421Z,100.00
2024-02-03T06:24:35.609Z,98.36
2024-02-03T06:27:38.053Z,98.86
2024-02-03T06:30:40.250Z,100.00
2024-02-03T06:33:42.565Z,100.00
2024-02-03T06:36:44.937Z,99.57
2024-02-03T06:39:47.310Z,97.07
2024-02-03T06:42:54.323Z,95.44
2024-02-03T06:45:56.654Z,96.32
2024-02-03T06:48:59.146Z,95.83
2024-02-03T06:52:01.529Z,100.00
2024-02-03T06:55:03.877Z,100.00
2024-02-03T06:58:06.185Z,100.00
2024-02-03T07:01:08.668Z,100.00
2024-02-03T07:04:11.019Z,100.00
2024-02-03T07:07:13.261Z,100.00
2024-02-03T07:10:15.673Z,100.00
2024-02-03T07:13:17.912Z,100.00
2024-02-03T07:16:20.190Z,100.00
2024-02-03T07:19:22.338Z,100.00
2024-02-03T07:22:24.709Z,100.00
2024-02-03T07:25:26.931Z,100.00
2024-02-03T07:28:29.192Z,100.00
2024-02-03T07:31:31.977Z,100.00
2024-02-03T07:34:34.541Z,100.00
2024-02-03T07:37:37.006Z,97.11
2024-02-03T07:40:39.306Z,93.88
2024-02-03T07:43:41.745Z,91.35
2024-02-03T07:46:43.901Z,89.77
2024-02-03T07:49:46.785Z,90.06
2024-02-03T07:52:48.863Z,84.95
2024-02-03T07:55:51.120Z,72.70
2024-02-03T07:58:53.789Z,67.07
2024-02-03T08:01:56.510Z,70.04
2024-02-03T08:04:58.749Z,75.07
2024-02-03T08:08:00.987Z,75.78
2024-02-03T08:11:05.981Z,75.03
2024-02-03T08:14:08.225Z,73.66
2024-02-03T08:17:10.367Z,74.32
2024-02-03T08:20:13.740Z,72.13
2024-02-03T08:23:16.072Z,75.84
2024-02-03T08:26:18.301Z,74.39
2024-02-03T08:29:20.455Z,73.53
2024-02-03T08:32:23.072Z,74.45
2024-02-03T08:35:25.393Z,74.33
2024-02-03T08:38:27.629Z,71.86
2024-02-03T08:41:29.722Z,71.97
2024-02-03T08:44:32.108Z,74.46
2024-02-03T08:47:34.270Z,78.29
2024-02-03T08:50:36.473Z,76.69
2024-02-03T08:53:38.632Z,76.38
2024-02-03T08:56:40.835Z,76.35
2024-02-03T08:59:43.011Z,76.46
2024-02-03T09:02:45.300Z,73.96
2024-02-03T09:05:47.559Z,72.09
2024-02-03T09:08:49.721Z,70.39
2024-02-03T09:11:51.918Z,69.19
2024-02-03T09:14:54.010Z,69.99
2024-02-03T09:17:56.264Z,72.67
2024-02-03T09:20:58.552Z,73.56
2024-02-03T09:24:00.716Z,73.56
2024-02-03T09:27:03.807Z,73.06
2024-02-03T09:30:06.469Z,74.50
2024-02-03T09:33:08.749Z,76.33
2024-02-03T09:36:11.434Z,76.82
2024-02-03T09:39:13.804Z,78.02
2024-02-03T09:42:16.618Z,77.88
2024-02-03T09:45:22.095Z,76.67
2024-02-03T09:48:25.288Z,75.35
2024-02-03T09:51:31.443Z,78.38
2024-02-03T09:54:34.384Z,79.32
2024-02-03T09:57:36.613Z,79.90
2024-02-03T10:00:38.960Z,80.29
2024-02-03T10:03:43.364Z,80.71
2024-02-03T10:06:48.136Z,79.88
2024-02-03T10:13:06.453Z,81.79
2024-02-03T10:16:08.994Z,82.66
2024-02-03T10:19:12.485Z,83.24
2024-02-03T10:22:15.869Z,82.73
2024-02-03T10:25:22.024Z,81.75
2024-02-03T10:28:25.084Z,81.89
2024-02-03T10:31:27.531Z,81.86
2024-02-03T10:34:32.382Z,81.64
2024-02-03T10:37:34.467Z,81.05
2024-02-03T10:40:36.692Z,79.28
2024-02-03T10:43:39.729Z,79.04
2024-02-03T10:46:41.971Z,79.57
2024-02-03T10:49:45.441Z,78.15
2024-02-03T10:52:49.749Z,77.94
2024-02-03T10:55:57.029Z,77.35
2024-02-03T10:59:00.880Z,75.97
2024-02-03T11:02:03.725Z,77.27
2024-02-03T11:05:10.884Z,76.35
2024-02-03T11:08:14.176Z,76.72
2024-02-03T11:11:28.294Z,77.06
2024-02-03T11:14:34.988Z,75.91
2024-02-03T11:17:37.157Z,75.75
2024-02-03T11:20:40.362Z,75.48
2024-02-03T11:23:44.226Z,76.83
2024-02-03T11:27:04.738Z,76.60
2024-02-03T11:30:07.522Z,75.66
2024-02-03T11:33:12.538Z,76.25
2024-02-03T11:36:15.409Z,77.65
2024-02-03T11:39:39.476Z,76.82
2024-02-03T11:42:43.883Z,75.63
2024-02-03T11:45:50.410Z,75.87
2024-02-03T11:48:53.073Z,75.21
2024-02-03T11:52:02.618Z,75.95
2024-02-03T11:55:06.588Z,76.80
2024-02-03T11:58:08.777Z,76.45
2024-02-03T12:01:14.018Z,75.51
2024-02-03T12:04:16.381Z,75.73
2024-02-03T12:07:19.044Z,76.91
2024-02-03T12:10:21.384Z,75.50
2024-02-03T12:13:23.518Z,76.20
2024-02-03T12:16:25.803Z,76.23
2024-02-03T12:19:29.859Z,76.06
2024-02-03T12:22:35.555Z,76.67
2024-02-03T12:25:37.919Z,76.36
2024-02-03T12:28:40.475Z,75.79
2024-02-03T12:31:42.783Z,75.45
2024-02-03T12:34:46.869Z,75.78
2024-02-03T12:37:49.230Z,75.39
2024-02-03T12:40:51.562Z,74.94
2024-02-03T12:43:53.844Z,74.29
2024-02-03T12:46:55.968Z,74.40
2024-02-03T12:49:58.128Z,74.18
2024-02-03T12:53:03.787Z,74.25
2024-02-03T12:56:06.768Z,75.28
2024-02-03T12:59:08.951Z,74.31
2024-02-03T13:02:11.121Z,74.67
2024-02-03T13:05:15.465Z,74.68
2024-02-03T13:08:18.771Z,74.98
2024-02-03T13:11:23.081Z,74.53
2024-02-03T13:14:27.706Z,75.06
2024-02-03T13:17:31.088Z,74.27
2024-02-03T13:20:33.258Z,74.51
2024-02-03T13:23:38.817Z,74.31
2024-02-03T13:26:41.530Z,74.07
2024-02-03T13:29:44.112Z,74.25
2024-02-03T13:32:47.140Z,74.18
2024-02-03T13:35:49.433Z,74.52
2024-02-03T13:38:51.834Z,74.31
2024-02-03T13:41:53.963Z,75.19
2024-02-03T13:44:56.214Z,74.56
2024-02-03T13:47:58.416Z,76.36
2024-02-03T13:51:00.697Z,75.76
2024-02-03T13:54:03.637Z,76.25
2024-02-03T13:57:06.149Z,79.10
2024-02-03T14:00:09.264Z,79.23
2024-02-03T14:03:12.765Z,80.06
2024-02-03T14:06:14.909Z,80.08
2024-02-03T14:09:17.220Z,80.61
2024-02-03T14:12:19.521Z,81.40
2024-02-03T14:15:21.934Z,80.77
2024-02-03T14:18:24.143Z,80.24
2024-02-03T14:21:26.906Z,80.58
2024-02-03T14:24:29.793Z,79.58
2024-02-03T14:27:34.137Z,80.37
2024-02-03T14:30:36.509Z,80.63
2024-02-03T14:33:38.943Z,80.83
2024-02-03T14:36:41.605Z,82.03
2024-02-03T14:39:43.834Z,82.58
2024-02-03T14:42:46.171Z,81.70
2024-02-03T14:45:48.365Z,83.18
2024-02-03T14:48:50.648Z,82.66
2024-02-03T14:51:53.209Z,83.18
2024-02-03T14:54:55.508Z,83.41
2024-02-03T14:57:57.698Z,82.97
2024-02-03T15:00:59.818Z,82.81
2024-02-03T15:04:03.250Z,81.84
2024-02-03T15:07:05.547Z,79.96
2024-02-03T15:10:08.309Z,80.01
2024-02-03T15:13:10.566Z,80.42
2024-02-03T15:16:12.786Z,80.43
2024-02-03T15:19:15.243Z,80.23
2024-02-03T15:22:17.551Z,80.83
2024-02-03T15:25:19.767Z,81.02
2024-02-03T15:28:26.865Z,81.20
2024-02-03T15:31:31.093Z,81.09
2024-02-03T15:34:33.425Z,80.88
2024-02-03T15:37:36.598Z,81.13
2024-02-03T15:40:38.735Z,81.10
2024-02-03T15:43:41.108Z,81.14
2024-02-03T15:46:45.626Z,81.38
2024-02-03T15:49:49.672Z,81.76
2024-02-03T15:52:51.998Z,83.23
2024-02-03T15:55:54.437Z,85.28
2024-02-03T15:58:56.790Z,88.84
2024-02-03T16:01:59.325Z,97.55
2024-02-03T16:05:02.818Z,90.42
2024-02-03T16:08:05.510Z,77.37
2024-02-03T16:11:07.778Z,74.58
2024-02-03T16:14:10.046Z,82.65
2024-02-03T16:17:12.162Z,84.66
2024-02-03T16:20:16.783Z,87.55
2024-02-03T16:23:19.815Z,91.25
2024-02-03T16:26:24.420Z,89.10
2024-02-03T16:29:27.040Z,86.81
2024-02-03T16:32:29.327Z,85.35
2024-02-03T16:35:31.667Z,84.28
2024-02-03T16:38:33.985Z,80.08
2024-02-03T16:41:36.203Z,79.13
2024-02-03T16:44:38.361Z,77.78
2024-02-03T16:47:41.613Z,77.17
2024-02-03T16:50:43.916Z,76.46
2024-02-03T16:53:46.152Z,73.68
2024-02-03T16:56:48.344Z,72.88
2024-02-03T16:59:50.589Z,71.57
2024-02-03T17:02:52.782Z,72.21
2024-02-03T17:05:55.432Z,70.32
2024-02-03T17:08:57.700Z,69.01
2024-02-03T17:11:59.757Z,68.11
2024-02-03T17:15:02.078Z,70.14
2024-02-03T17:18:05.071Z,69.06
2024-02-03T17:21:11.201Z,66.93
2024-02-03T17:24:13.924Z,67.58
2024-02-03T17:27:16.272Z,67.21
2024-02-03T17:30:19.752Z,66.33
2024-02-03T17:33:22.305Z,65.47
2024-02-03T17:36:24.701Z,66.46
2024-02-03T17:39:26.904Z,66.82
2024-02-03T17:42:29.234Z,67.58
2024-02-03T17:45:31.320Z,67.54
2024-02-03T17:48:34.061Z,69.44
2024-02-03T17:51:36.914Z,69.41
2024-02-03T17:54:39.744Z,70.25
2024-02-03T17:57:42.608Z,70.75
2024-02-03T18:00:45.196Z,71.12
2024-02-03T18:03:47.644Z,71.90
2024-02-03T18:06:50.076Z,72.28
2024-02-03T18:09:52.598Z,72.28
2024-02-03T18:12:54.945Z,72.14
2024-02-03T18:15:57.166Z,73.14
2024-02-03T18:18:59.596Z,73.01
2024-02-03T18:22:02.143Z,72.95
2024-02-03T18:25:04.605Z,73.04
2024-02-03T18:28:07.431Z,72.70
2024-02-03T18:31:09.749Z,72.52
2024-02-03T18:34:12.256Z,72.86
2024-02-03T18:37:14.563Z,72.32
2024-02-03T18:40:16.831Z,72.85
2024-02-03T18:43:19.007Z,72.56
2024-02-03T18:46:21.422Z,72.28
2024-02-03T18:49:23.666Z,72.19
2024-02-03T18:52:25.854Z,72.34
2024-02-03T18:55:27.953Z,73.05
2024-02-03T18:58:30.480Z,73.35
2024-02-03T19:01:32.822Z,74.13
2024-02-03T19:04:35.156Z,74.02
2024-02-03T19:07:37.386Z,73.61
2024-02-03T19:10:39.607Z,73.59
2024-02-03T19:13:41.824Z,73.73
2024-02-03T19:16:43.941Z,75.26
2024-02-03T19:19:46.150Z,74.54
2024-02-03T19:22:48.534Z,75.98
2024-02-03T19:25:53.558Z,74.95
2024-02-03T19:28:55.925Z,78.59
2024-02-03T19:31:58.077Z,80.78
2024-02-03T19:35:00.287Z,87.97
2024-02-03T19:38:04.201Z,89.38
2024-02-03T19:41:06.593Z,92.65
2024-02-03T19:44:08.627Z,97.37
2024-02-03T19:47:10.929Z,99.54
2024-02-03T19:50:13.762Z,100.00
2024-02-03T19:53:17.649Z,100.00
2024-02-03T19:56:19.968Z,98.30
2024-02-03T19:59:23.595Z,99.94
2024-02-03T20:02:26.866Z,100.00
2024-02-03T20:05:29.124Z,100.00
2024-02-03T20:08:31.391Z,100.00
2024-02-03T20:11:33.747Z,93.06
2024-02-03T20:14:36.593Z,93.96
2024-02-03T20:17:40.691Z,87.75
2024-02-03T20:20:42.960Z,92.09
2024-02-03T20:23:45.110Z,96.08
2024-02-03T20:26:47.272Z,100.00
2024-02-03T20:29:49.657Z,100.00
2024-02-03T20:32:51.958Z,97.02
2024-02-03T20:35:54.219Z,89.13
2024-02-03T20:38:56.787Z,93.34
2024-02-03T20:41:59.075Z,93.48
2024-02-03T20:45:01.554Z,98.79
2024-02-03T20:48:05.470Z,100.00
2024-02-03T20:51:07.739Z,100.00
2024-02-03T20:54:11.494Z,100.00
2024-02-03T20:57:14.034Z,100.00
2024-02-03T21:00:17.317Z,99.77
2024-02-03T21:03:20.108Z,98.43
2024-02-03T21:06:22.416Z,86.85
2024-02-03T21:09:24.796Z,84.56
2024-02-03T21:12:27.303Z,82.44
2024-02-03T21:15:29.614Z,82.85
2024-02-03T21:18:31.892Z,82.84
2024-02-03T21:21:39.057Z,82.88
2024-02-03T21:24:42.092Z,82.93
2024-02-03T21:27:44.438Z,83.25
2024-02-03T21:30:48.446Z,83.33
2024-02-03T21:33:51.876Z,83.40
2024-02-03T21:36:54.208Z,83.36
2024-02-03T21:39:56.603Z,82.90
2024-02-03T21:42:59.779Z,83.32
2024-02-03T21:46:02.282Z,82.87
2024-02-03T21:49:04.625Z,83.05
2024-02-03T21:52:06.867Z,83.45
2024-02-03T21:55:09.319Z,83.14
2024-02-03T21:58:11.861Z,83.96
2024-02-03T22:01:14.868Z,83.86
2024-02-03T22:04:17.388Z,83.25
2024-02-03T22:07:19.698Z,82.70
2024-02-03T22:10:21.940Z,83.06
2024-02-03T22:13:25.225Z,82.68
2024-02-03T22:16:27.483Z,82.39
2024-02-03T22:19:31.894Z,81.52
2024-02-03T22:22:34.438Z,81.74
2024-02-03T22:25:36.729Z,88.98
2024-02-03T22:28:38.962Z,94.40
2024-02-03T22:31:41.313Z,94.51
2024-02-03T22:34:44.124Z,94.90
2024-02-03T22:37:46.448Z,95.51
2024-02-03T22:40:48.579Z,95.65
2024-02-03T22:43:52.127Z,96.06
2024-02-03T22:46:54.305Z,96.23
2024-02-03T22:49:56.512Z,95.21
2024-02-03T22:52:58.809Z,95.15
2024-02-03T22:56:01.020Z,93.34
2024-02-03T22:59:03.223Z,94.10
2024-02-03T23:02:06.305Z,93.32
2024-02-03T23:05:08.540Z,92.00
2024-02-03T23:08:10.852Z,92.00
2024-02-03T23:11:13.408Z,91.83
2024-02-03T23:14:17.047Z,90.33
2024-02-03T23:17:19.557Z,90.03
2024-02-03T23:20:23.646Z,89.57
2024-02-03T23:23:26.353Z,89.85
2024-02-03T23:26:28.735Z,89.48
2024-02-03T23:29:30.960Z,89.89
2024-02-03T23:32:33.517Z,89.01
2024-02-03T23:35:37.127Z,88.04
2024-02-03T23:38:39.366Z,88.27
2024-02-03T23:41:41.541Z,88.28
2024-02-03T23:44:43.807Z,87.58
2024-02-03T23:47:46.150Z,86.85
2024-02-03T23:50:48.574Z,86.96
2024-02-03T23:53:52.681Z,86.96
2024-02-03T23:56:54.952Z,86.23
2024-02-03T23:59:57.275Z,86.66
